If you wish to contribute or participate in the discussions about articles you are invited to join SKYbrary as a registered user

 Actions

Shahjalal International Airport

From SKYbrary Wiki

VGHS
Airport
ICAO: VGHS – IATA: DAC
Summary
Name Shahjalal International Airport
Region Asia and Pacific
Territory Bangladesh BD.gif
Location Kurmitola, Bangladesh
Serving Dhaka
Elevation 8.23 m
27 ft8.23 m
Coordinates 23° 50' 36.36" N, 90° 24' 10.53" E
Runways
Designator Length Width Surface ROPS


METAR
Observation VGHS 191530Z 15003KT 3500 HZ FEW015 SCT100 24/19 Q1010 NOSIG
Station DHAKA
Date/Time 19 March 2019 15:30:00
Wind direction 150°
Wind speed 03 kts
Lowest cloud amount few clouds
Temperature 24°C
Dew point 19°C
Humidity 73%
QNH 1010 hPa
Weather condition n/a

WX
Tag(s) Cumulonimbus
Lightning

Hazrat Shahjalal International Airport, formerly known as Dacca International Airport and Zia International Airport (VGZR), is the largest airport in Bangladesh.

Climatology

Tropical Savanna climate (Köppen climate classification Aw)

Maps

Terrain

Loading map...

Airport Layout

Loading map...


Accidents & Serious Incidents at or in vicinity of VGHS

None on SKYbrary